Time;durP1;ratioP1;P1;durP2;ratioP2;P2;SDS_P1;SDS_P2;PMS_P1;PMS_P2;Temp;Humidity;BMP_temperature;BMP_pressure;BME280_temperature;BME280_humidity;BME280_pressure;Samples;Min_cycle;Max_cycle;Signal;HPM_P1;HPM_P2
2023/06/14 00:00:30;;;;;;;5.30;2.95;;;;;;;;;;5095644;28;20039;-67
2023/06/14 00:02:56;;;;;;;5.05;2.38;;;;;;;;;;5078061;28;20097;-67
2023/06/14 00:05:23;;;;;;;8.63;3.60;;;;;;;;;;5095820;28;20394;-67
2023/06/14 00:07:49;;;;;;;6.07;2.33;;;;;;;;;;5095813;28;20043;-67
2023/06/14 00:10:14;;;;;;;4.25;2.70;;;;;;;;;;5095589;28;20469;-67
2023/06/14 00:12:40;;;;;;;10.15;2.67;;;;;;;;;;5095553;28;20023;-67
2023/06/14 00:15:09;;;;;;;7.85;3.28;;;;;;;;;;5095714;28;20020;-67
2023/06/14 00:17:36;;;;;;;4.70;2.83;;;;;;;;;;5095534;28;20027;-67
2023/06/14 00:20:04;;;;;;;5.72;2.40;;;;;;;;;;5077354;28;20496;-67
2023/06/14 00:22:30;;;;;;;4.30;2.22;;;;;;;;;;5095676;28;20107;-67
2023/06/14 00:24:56;;;;;;;5.63;2.53;;;;;;;;;;5077315;28;20100;-67
2023/06/14 00:27:21;;;;;;;4.30;2.83;;;;;;;;;;5095631;28;20031;-67
2023/06/14 00:29:46;;;;;;;5.15;2.60;;;;;;;;;;5077112;28;20016;-67
2023/06/14 00:32:11;;;;;;;4.57;2.72;;;;;;;;;;5077360;28;20506;-67
2023/06/14 00:34:37;;;;;;;6.15;2.67;;;;;;;;;;5095372;28;20024;-67
2023/06/14 00:37:02;;;;;;;3.88;2.60;;;;;;;;;;5077182;28;20097;-67
2023/06/14 00:39:28;;;;;;;4.80;2.95;;;;;;;;;;5095432;28;20054;-67
2023/06/14 00:41:53;;;;;;;5.65;2.75;;;;;;;;;;5094766;28;20051;-67
2023/06/14 00:44:18;;;;;;;7.30;2.60;;;;;;;;;;5095394;28;20024;-67
2023/06/14 00:46:46;;;;;;;3.38;2.30;;;;;;;;;;5094783;28;20469;-67
2023/06/14 00:49:15;;;;;;;4.22;2.53;;;;;;;;;;5095019;28;20026;-67
2023/06/14 00:51:41;;;;;;;4.65;2.70;;;;;;;;;;5095061;28;20028;-67
2023/06/14 00:54:07;;;;;;;3.58;2.22;;;;;;;;;;5094872;28;20023;-67
2023/06/14 00:56:32;;;;;;;4.10;2.63;;;;;;;;;;5094884;28;20028;-67
2023/06/14 00:58:58;;;;;;;4.50;2.45;;;;;;;;;;5094619;28;20069;-67
2023/06/14 01:01:23;;;;;;;5.63;3.40;;;;;;;;;;5076675;28;20425;-67
2023/06/14 01:03:49;;;;;;;4.22;2.50;;;;;;;;;;5094712;28;20103;-67
2023/06/14 01:06:41;;;;;;;3.58;2.08;;;;;;;;;;5094615;28;20051;-67
2023/06/14 01:10:01;;;;;;;4.35;2.92;;;;;;;;;;5076536;28;20111;-67
2023/06/14 01:12:44;;;;;;;5.18;2.40;;;;;;;;;;5032296;28;20411;-67
2023/06/14 01:15:10;;;;;;;5.97;2.17;;;;;;;;;;5094965;28;20024;-67
2023/06/14 01:17:35;;;;;;;5.18;2.53;;;;;;;;;;5075937;28;20028;-67
2023/06/14 01:20:02;;;;;;;5.47;2.45;;;;;;;;;;5094439;28;20103;-67
2023/06/14 01:22:28;;;;;;;3.53;2.00;;;;;;;;;;5094227;28;20028;-67
2023/06/14 01:24:55;;;;;;;5.25;2.45;;;;;;;;;;5094589;28;20097;-67
2023/06/14 01:27:23;;;;;;;2.97;2.00;;;;;;;;;;5094163;28;20051;-67
2023/06/14 01:29:50;;;;;;;3.53;2.20;;;;;;;;;;5094071;28;20026;-67
2023/06/14 01:32:17;;;;;;;7.43;2.10;;;;;;;;;;5094298;28;20020;-67
2023/06/14 01:34:43;;;;;;;5.28;2.78;;;;;;;;;;5076408;28;20386;-67
2023/06/14 01:37:08;;;;;;;3.25;2.20;;;;;;;;;;5075850;28;20024;-67
2023/06/14 01:39:34;;;;;;;2.95;1.83;;;;;;;;;;5093901;28;20020;-67
2023/06/14 01:42:00;;;;;;;4.03;2.15;;;;;;;;;;5075972;28;20047;-67
2023/06/14 01:44:26;;;;;;;3.63;2.22;;;;;;;;;;5075827;28;20019;-67
2023/06/14 01:46:51;;;;;;;4.78;1.98;;;;;;;;;;5076110;28;20100;-67
2023/06/14 01:49:17;;;;;;;4.63;2.28;;;;;;;;;;5075538;28;20052;-67
2023/06/14 01:51:42;;;;;;;3.42;2.15;;;;;;;;;;5094154;28;20582;-67
2023/06/14 01:54:07;;;;;;;4.22;2.75;;;;;;;;;;5074835;28;20382;-67
2023/06/14 01:56:32;;;;;;;3.13;2.13;;;;;;;;;;5093800;28;20032;-67
2023/06/14 01:58:58;;;;;;;3.58;2.17;;;;;;;;;;5093563;28;20111;-67
2023/06/14 02:01:24;;;;;;;3.78;2.38;;;;;;;;;;5093423;28;20020;-67
2023/06/14 02:03:51;;;;;;;3.70;2.60;;;;;;;;;;5093927;28;20028;-67
2023/06/14 02:06:16;;;;;;;4.72;2.35;;;;;;;;;;5093661;28;20027;-67
2023/06/14 02:08:42;;;;;;;4.18;2.03;;;;;;;;;;5093741;28;20427;-67
2023/06/14 02:11:08;;;;;;;5.25;3.20;;;;;;;;;;5093369;28;20413;-67
2023/06/14 02:13:34;;;;;;;4.43;2.70;;;;;;;;;;5075492;28;20027;-67
2023/06/14 02:15:59;;;;;;;3.22;2.88;;;;;;;;;;5093423;28;20401;-67
2023/06/14 02:18:25;;;;;;;4.47;2.42;;;;;;;;;;5093282;28;20020;-67
2023/06/14 02:20:50;;;;;;;4.03;2.35;;;;;;;;;;5093682;28;20538;-67
2023/06/14 02:23:15;;;;;;;5.15;2.28;;;;;;;;;;5093219;28;20023;-67
2023/06/14 02:25:41;;;;;;;2.75;2.10;;;;;;;;;;5093493;28;20477;-67
2023/06/14 02:28:06;;;;;;;5.82;2.63;;;;;;;;;;5093506;28;20111;-67
2023/06/14 02:30:31;;;;;;;4.72;2.33;;;;;;;;;;5093418;28;20492;-67
2023/06/14 02:32:57;;;;;;;4.93;2.70;;;;;;;;;;5093439;28;20097;-67
2023/06/14 02:35:26;;;;;;;3.78;2.22;;;;;;;;;;5093317;28;20019;-67
2023/06/14 02:37:51;;;;;;;3.38;2.08;;;;;;;;;;5093877;28;20077;-67
2023/06/14 02:40:16;;;;;;;8.00;2.47;;;;;;;;;;5075204;28;20031;-67
2023/06/14 02:42:41;;;;;;;4.95;2.70;;;;;;;;;;5093643;28;20016;-67
2023/06/14 02:45:08;;;;;;;5.32;3.13;;;;;;;;;;5093201;28;20027;-67
2023/06/14 02:47:33;;;;;;;4.78;2.88;;;;;;;;;;5075556;28;20055;-67
2023/06/14 02:49:58;;;;;;;7.10;3.10;;;;;;;;;;5093359;28;20059;-67
2023/06/14 02:52:25;;;;;;;4.15;2.55;;;;;;;;;;5093227;28;20552;-67
2023/06/14 02:54:50;;;;;;;4.47;2.83;;;;;;;;;;5093388;28;20026;-67
2023/06/14 02:57:16;;;;;;;6.55;3.80;;;;;;;;;;5075183;28;20459;-67
2023/06/14 02:59:41;;;;;;;4.30;2.72;;;;;;;;;;5093213;28;20020;-67
2023/06/14 03:02:06;;;;;;;5.68;3.17;;;;;;;;;;5093071;28;20035;-67
2023/06/14 03:04:37;;;;;;;6.53;3.03;;;;;;;;;;5094430;28;20074;-67
2023/06/14 03:07:08;;;;;;;5.97;2.90;;;;;;;;;;5097262;28;20031;-67
2023/06/14 03:09:34;;;;;;;3.88;2.70;;;;;;;;;;5080260;28;20082;-67
2023/06/14 03:12:00;;;;;;;6.18;3.58;;;;;;;;;;5079188;28;20062;-67
2023/06/14 03:14:25;;;;;;;6.30;2.70;;;;;;;;;;5097190;28;20020;-67
2023/06/14 03:16:50;;;;;;;5.78;3.00;;;;;;;;;;5097037;28;20024;-67
2023/06/14 03:19:16;;;;;;;4.78;3.22;;;;;;;;;;5096911;28;20020;-67
2023/06/14 03:21:44;;;;;;;8.13;4.25;;;;;;;;;;5078793;28;20388;-67
2023/06/14 03:24:09;;;;;;;4.90;3.05;;;;;;;;;;5097220;28;20095;-67
2023/06/14 03:26:36;;;;;;;5.97;3.05;;;;;;;;;;5096858;28;20101;-67
2023/06/14 03:29:02;;;;;;;4.40;3.03;;;;;;;;;;5096858;28;20020;-67
2023/06/14 03:31:32;;;;;;;5.70;3.08;;;;;;;;;;5078620;28;20099;-68
2023/06/14 03:33:57;;;;;;;6.70;2.88;;;;;;;;;;5079486;28;20019;-67
2023/06/14 03:36:23;;;;;;;5.20;3.10;;;;;;;;;;5078628;28;20032;-67
2023/06/14 03:38:48;;;;;;;5.90;2.97;;;;;;;;;;5096611;28;20089;-67
2023/06/14 03:41:13;;;;;;;5.38;3.00;;;;;;;;;;5096810;28;20027;-67
2023/06/14 03:43:39;;;;;;;6.53;4.25;;;;;;;;;;5096574;28;20375;-67
2023/06/14 03:46:04;;;;;;;7.03;3.47;;;;;;;;;;5096518;28;20119;-67
2023/06/14 03:48:30;;;;;;;5.70;3.03;;;;;;;;;;5096449;28;20024;-67
2023/06/14 03:50:56;;;;;;;6.38;3.70;;;;;;;;;;5096174;28;20031;-67
2023/06/14 03:53:23;;;;;;;4.05;2.70;;;;;;;;;;5069248;28;20490;-67
2023/06/14 03:55:49;;;;;;;6.90;3.65;;;;;;;;;;5076415;28;20030;-67
2023/06/14 03:58:15;;;;;;;6.85;3.70;;;;;;;;;;5073491;28;20024;-67
2023/06/14 04:00:40;;;;;;;5.90;2.92;;;;;;;;;;5095592;28;20053;-67
2023/06/14 04:03:06;;;;;;;8.90;3.90;;;;;;;;;;5095898;28;20040;-68
2023/06/14 04:05:31;;;;;;;7.45;4.18;;;;;;;;;;5096741;28;20023;-67
2023/06/14 04:07:56;;;;;;;6.30;3.97;;;;;;;;;;5095863;28;20478;-67
2023/06/14 04:10:22;;;;;;;5.30;3.38;;;;;;;;;;5095785;28;20016;-67
2023/06/14 04:12:48;;;;;;;5.20;3.38;;;;;;;;;;5096173;28;20032;-67
2023/06/14 04:15:13;;;;;;;8.32;3.58;;;;;;;;;;5096391;28;20035;-67
2023/06/14 04:17:39;;;;;;;8.90;3.90;;;;;;;;;;5094789;28;20097;-67
2023/06/14 04:20:06;;;;;;;3.95;2.70;;;;;;;;;;5095606;28;20039;-67
2023/06/14 04:22:31;;;;;;;8.73;4.10;;;;;;;;;;5060927;28;20024;-68
2023/06/14 04:24:57;;;;;;;6.40;3.25;;;;;;;;;;5095757;28;20085;-68
2023/06/14 04:27:25;;;;;;;4.63;3.13;;;;;;;;;;5095389;28;20564;-67
2023/06/14 04:29:56;;;;;;;6.28;3.55;;;;;;;;;;5095307;28;20020;-68
2023/06/14 04:32:26;;;;;;;5.97;3.47;;;;;;;;;;5078116;28;20019;-68
2023/06/14 04:34:53;;;;;;;5.97;3.45;;;;;;;;;;5095299;28;20019;-67
2023/06/14 04:37:20;;;;;;;7.55;3.50;;;;;;;;;;5077311;28;20020;-67
2023/06/14 04:39:47;;;;;;;10.38;3.80;;;;;;;;;;5077157;28;20044;-68
2023/06/14 04:42:14;;;;;;;5.18;3.60;;;;;;;;;;5095311;28;20020;-67
2023/06/14 04:44:41;;;;;;;6.88;4.28;;;;;;;;;;5094952;28;20028;-67
2023/06/14 04:47:06;;;;;;;8.57;4.50;;;;;;;;;;5095542;28;20072;-68
2023/06/14 04:49:32;;;;;;;10.88;4.03;;;;;;;;;;5094798;28;20055;-68
2023/06/14 04:51:59;;;;;;;9.13;3.60;;;;;;;;;;5077019;28;20024;-68
2023/06/14 04:54:27;;;;;;;5.35;3.70;;;;;;;;;;5076954;28;20051;-68
2023/06/14 04:56:54;;;;;;;9.68;4.40;;;;;;;;;;5077646;28;20103;-68
2023/06/14 04:59:20;;;;;;;7.63;4.60;;;;;;;;;;5076798;28;20389;-68
2023/06/14 05:01:48;;;;;;;6.45;3.70;;;;;;;;;;5095044;28;20020;-68
2023/06/14 05:04:15;;;;;;;5.80;3.97;;;;;;;;;;5094797;28;20520;-68
2023/06/14 05:06:41;;;;;;;5.93;4.28;;;;;;;;;;5076908;28;20028;-68
2023/06/14 05:09:06;;;;;;;9.35;5.32;;;;;;;;;;5094492;28;20016;-68
2023/06/14 05:11:31;;;;;;;6.85;5.18;;;;;;;;;;5076502;28;20389;-68
2023/06/14 05:13:58;;;;;;;6.85;3.80;;;;;;;;;;5076792;28;20023;-68
2023/06/14 05:16:25;;;;;;;9.75;4.40;;;;;;;;;;5094687;28;20039;-68
2023/06/14 05:18:50;;;;;;;9.05;4.10;;;;;;;;;;5094642;28;20544;-68
2023/06/14 05:21:18;;;;;;;5.28;3.85;;;;;;;;;;5094357;28;20051;-67
2023/06/14 05:23:44;;;;;;;6.97;4.93;;;;;;;;;;5076552;28;20383;-67
2023/06/14 05:26:10;;;;;;;6.43;3.25;;;;;;;;;;5094410;28;20024;-67
2023/06/14 05:28:36;;;;;;;5.65;3.10;;;;;;;;;;5074998;28;20030;-67
2023/06/14 05:31:01;;;;;;;5.30;2.80;;;;;;;;;;5094160;28;20035;-67
2023/06/14 05:33:26;;;;;;;9.45;3.08;;;;;;;;;;5075981;28;20024;-67
2023/06/14 05:35:51;;;;;;;5.55;2.90;;;;;;;;;;5076281;28;20024;-67
2023/06/14 05:38:17;;;;;;;6.72;3.13;;;;;;;;;;5093788;28;20130;-67
2023/06/14 05:40:42;;;;;;;9.02;3.22;;;;;;;;;;5094204;28;20035;-68
2023/06/14 05:43:07;;;;;;;8.45;3.15;;;;;;;;;;5094109;28;20496;-67
2023/06/14 05:45:32;;;;;;;5.78;3.03;;;;;;;;;;5094049;28;20020;-68
2023/06/14 05:47:58;;;;;;;10.75;3.70;;;;;;;;;;5093862;28;20421;-68
2023/06/14 05:50:23;;;;;;;5.00;2.75;;;;;;;;;;5093654;28;20032;-68
2023/06/14 05:52:48;;;;;;;4.32;2.67;;;;;;;;;;5093789;28;20111;-67
2023/06/14 05:55:16;;;;;;;6.57;2.80;;;;;;;;;;5093612;28;20028;-68
2023/06/14 05:57:41;;;;;;;5.60;3.05;;;;;;;;;;5093568;28;20052;-67
2023/06/14 06:00:10;;;;;;;5.88;3.08;;;;;;;;;;5075843;28;20109;-68
2023/06/14 06:02:35;;;;;;;5.45;2.83;;;;;;;;;;5077169;28;20027;-67
2023/06/14 06:05:01;;;;;;;7.15;3.15;;;;;;;;;;5093760;28;20425;-67
2023/06/14 06:07:26;;;;;;;4.13;2.63;;;;;;;;;;5093746;28;20024;-67
2023/06/14 06:09:51;;;;;;;5.18;2.90;;;;;;;;;;5093516;28;20474;-67
2023/06/14 06:12:16;;;;;;;4.40;2.85;;;;;;;;;;5093366;28;20070;-67
2023/06/14 06:14:42;;;;;;;5.28;2.72;;;;;;;;;;5093699;28;20107;-67
2023/06/14 06:17:08;;;;;;;6.13;3.03;;;;;;;;;;5093520;28;20028;-67
2023/06/14 06:19:33;;;;;;;10.48;2.90;;;;;;;;;;5093190;28;20093;-67
2023/06/14 06:21:58;;;;;;;4.13;2.40;;;;;;;;;;5093727;28;20081;-67
2023/06/14 06:24:24;;;;;;;4.35;2.70;;;;;;;;;;5093175;28;20093;-67
2023/06/14 06:26:49;;;;;;;5.35;2.85;;;;;;;;;;5093622;28;20107;-67
2023/06/14 06:29:14;;;;;;;5.78;3.65;;;;;;;;;;5093566;28;20431;-67
2023/06/14 06:31:39;;;;;;;6.50;2.80;;;;;;;;;;5058380;28;20415;-67
2023/06/14 06:34:05;;;;;;;6.95;2.65;;;;;;;;;;5093540;28;20027;-67
2023/06/14 06:36:30;;;;;;;5.55;3.15;;;;;;;;;;5075091;28;20050;-67
2023/06/14 06:38:55;;;;;;;5.93;3.00;;;;;;;;;;5092949;28;20392;-67
2023/06/14 06:41:21;;;;;;;4.53;3.00;;;;;;;;;;5093056;28;20464;-67
2023/06/14 06:43:46;;;;;;;4.65;2.70;;;;;;;;;;5093483;28;20020;-67
2023/06/14 06:46:12;;;;;;;4.28;2.53;;;;;;;;;;5093135;28;20024;-67
2023/06/14 06:48:37;;;;;;;7.30;2.72;;;;;;;;;;5092986;28;20084;-67
2023/06/14 06:51:05;;;;;;;7.70;2.72;;;;;;;;;;5092961;28;20078;-67
2023/06/14 06:53:30;;;;;;;6.82;2.63;;;;;;;;;;5093033;28;20056;-67
2023/06/14 06:55:56;;;;;;;6.63;3.03;;;;;;;;;;5092778;28;20055;-67
2023/06/14 06:58:22;;;;;;;5.03;2.70;;;;;;;;;;5092758;28;20020;-67
2023/06/14 07:00:47;;;;;;;4.07;2.60;;;;;;;;;;5093049;28;20020;-67
2023/06/14 07:03:12;;;;;;;5.05;2.85;;;;;;;;;;5092791;28;20562;-67
2023/06/14 07:05:38;;;;;;;4.47;2.28;;;;;;;;;;5092830;28;20016;-67
2023/06/14 07:08:03;;;;;;;7.03;2.33;;;;;;;;;;5093003;28;20077;-67
2023/06/14 07:10:29;;;;;;;4.80;2.47;;;;;;;;;;5092870;28;20502;-67
2023/06/14 07:12:54;;;;;;;4.68;2.47;;;;;;;;;;5092995;28;20505;-67
2023/06/14 07:15:20;;;;;;;11.45;2.90;;;;;;;;;;5074866;28;20028;-67
2023/06/14 07:17:45;;;;;;;5.45;2.25;;;;;;;;;;5092653;28;20059;-67
2023/06/14 07:20:13;;;;;;;6.40;2.53;;;;;;;;;;5092780;28;20070;-67
2023/06/14 07:22:41;;;;;;;8.82;2.55;;;;;;;;;;5092618;28;20103;-67
2023/06/14 07:25:13;;;;;;;6.70;2.70;;;;;;;;;;5092651;28;20115;-67
2023/06/14 07:27:39;;;;;;;5.53;2.60;;;;;;;;;;5092317;28;20024;-67
2023/06/14 07:30:06;;;;;;;4.13;2.35;;;;;;;;;;5092618;28;20078;-67
2023/06/14 07:32:31;;;;;;;6.57;3.00;;;;;;;;;;5092529;28;20489;-67
2023/06/14 07:34:57;;;;;;;4.40;2.55;;;;;;;;;;5092707;28;20031;-67
2023/06/14 07:37:22;;;;;;;7.45;2.67;;;;;;;;;;5092658;28;20020;-67
2023/06/14 07:39:47;;;;;;;3.88;2.75;;;;;;;;;;5092202;28;20031;-67
2023/06/14 07:42:12;;;;;;;3.92;3.05;;;;;;;;;;5092333;28;20447;-67
2023/06/14 07:44:38;;;;;;;9.60;3.03;;;;;;;;;;5092566;28;20034;-68
2023/06/14 07:47:03;;;;;;;8.68;2.53;;;;;;;;;;5092595;28;20023;-67
2023/06/14 07:49:29;;;;;;;6.20;2.92;;;;;;;;;;5092131;28;20057;-67
2023/06/14 07:51:54;;;;;;;4.97;2.30;;;;;;;;;;5078422;28;20078;-67
2023/06/14 07:54:24;;;;;;;6.18;2.53;;;;;;;;;;5075106;28;20054;-67
2023/06/14 07:56:50;;;;;;;5.70;2.17;;;;;;;;;;5094522;28;20027;-67
2023/06/14 07:59:16;;;;;;;4.80;2.30;;;;;;;;;;5095106;28;20111;-67
2023/06/14 08:01:46;;;;;;;5.25;2.40;;;;;;;;;;5077408;28;20060;-66
2023/06/14 08:04:12;;;;;;;4.00;2.72;;;;;;;;;;5095770;28;20032;-66
2023/06/14 08:06:37;;;;;;;4.30;2.33;;;;;;;;;;5095182;28;20066;-66
2023/06/14 08:09:02;;;;;;;4.93;2.55;;;;;;;;;;5095880;28;20016;-66
2023/06/14 08:11:28;;;;;;;5.22;2.50;;;;;;;;;;5094701;28;20024;-66
2023/06/14 08:13:53;;;;;;;5.40;2.78;;;;;;;;;;5094615;28;20024;-66
2023/06/14 08:16:19;;;;;;;4.30;2.53;;;;;;;;;;5075528;28;20508;-66
2023/06/14 08:18:44;;;;;;;5.03;2.58;;;;;;;;;;5074785;28;20016;-66
2023/06/14 08:21:09;;;;;;;5.72;2.63;;;;;;;;;;5075199;28;20106;-67
2023/06/14 08:23:35;;;;;;;6.75;2.50;;;;;;;;;;5074986;28;20024;-66
2023/06/14 08:26:03;;;;;;;4.78;2.60;;;;;;;;;;5074717;28;20031;-66
2023/06/14 08:28:29;;;;;;;5.43;2.63;;;;;;;;;;5075760;28;20385;-66
2023/06/14 08:30:55;;;;;;;4.82;2.83;;;;;;;;;;5075167;28;20027;-66
2023/06/14 08:33:20;;;;;;;4.75;2.78;;;;;;;;;;5075119;28;20025;-66
2023/06/14 08:35:45;;;;;;;5.68;2.47;;;;;;;;;;5074620;28;20059;-66
2023/06/14 08:38:11;;;;;;;4.65;2.50;;;;;;;;;;5074730;28;20029;-66
2023/06/14 08:40:37;;;;;;;5.70;2.45;;;;;;;;;;5075627;28;20104;-66
2023/06/14 08:43:02;;;;;;;5.22;2.97;;;;;;;;;;5075692;28;20025;-66
2023/06/14 08:45:27;;;;;;;5.80;2.80;;;;;;;;;;5074626;28;20481;-66
2023/06/14 08:47:57;;;;;;;6.60;2.50;;;;;;;;;;5056657;28;20028;-66
2023/06/14 08:50:23;;;;;;;4.18;2.90;;;;;;;;;;5095299;23;20390;-73
2023/06/14 08:52:54;;;;;;;4.72;2.53;;;;;;;;;;5073641;28;20032;-73
2023/06/14 08:55:20;;;;;;;4.32;2.60;;;;;;;;;;5056133;28;20028;-72
2023/06/14 08:57:47;;;;;;;5.75;2.70;;;;;;;;;;5073554;28;20017;-73
2023/06/14 09:00:14;;;;;;;4.95;2.88;;;;;;;;;;5069288;28;20091;-73
2023/06/14 09:02:43;;;;;;;4.38;2.13;;;;;;;;;;5052786;28;20036;-73
2023/06/14 09:05:09;;;;;;;3.53;2.28;;;;;;;;;;5036446;28;20025;-74
2023/06/14 09:07:34;;;;;;;4.72;2.45;;;;;;;;;;5035539;28;20035;-73
2023/06/14 09:10:08;;;;;;;5.03;2.45;;;;;;;;;;5053761;28;20029;-72
2023/06/14 09:12:34;;;;;;;6.07;2.53;;;;;;;;;;5035280;28;20094;-72
2023/06/14 09:14:59;;;;;;;5.00;2.28;;;;;;;;;;5053266;28;20467;-70
2023/06/14 09:17:25;;;;;;;4.82;2.20;;;;;;;;;;5053162;28;20029;-70
2023/06/14 09:19:50;;;;;;;4.88;2.47;;;;;;;;;;5035435;28;20025;-72
2023/06/14 09:22:16;;;;;;;4.32;2.78;;;;;;;;;;5052762;28;20020;-73
2023/06/14 09:24:41;;;;;;;4.60;2.30;;;;;;;;;;5053191;28;20036;-72
2023/06/14 09:27:07;;;;;;;5.03;2.45;;;;;;;;;;5052849;28;20028;-71
2023/06/14 09:29:33;;;;;;;4.35;2.42;;;;;;;;;;5053151;28;20021;-72
2023/06/14 09:31:58;;;;;;;2.72;2.00;;;;;;;;;;5035139;28;20036;-71
2023/06/14 09:34:23;;;;;;;5.07;2.67;;;;;;;;;;5034894;28;20025;-71
2023/06/14 09:36:49;;;;;;;5.72;2.33;;;;;;;;;;5053239;28;20029;-71
2023/06/14 09:39:17;;;;;;;5.90;2.40;;;;;;;;;;5035095;28;20487;-71
2023/06/14 09:41:43;;;;;;;5.53;2.42;;;;;;;;;;5035005;28;20029;-71
2023/06/14 09:44:10;;;;;;;6.55;2.60;;;;;;;;;;5052905;28;20122;-71
2023/06/14 09:46:36;;;;;;;6.28;2.30;;;;;;;;;;5034556;28;20478;-73
2023/06/14 09:49:03;;;;;;;5.75;2.13;;;;;;;;;;5035422;28;20028;-71
2023/06/14 09:51:31;;;;;;;4.55;2.15;;;;;;;;;;5034197;28;20552;-72
2023/06/14 09:54:04;;;;;;;5.18;2.40;;;;;;;;;;5035145;28;20514;-72
2023/06/14 09:56:31;;;;;;;5.35;2.40;;;;;;;;;;5034588;28;20020;-72
2023/06/14 09:58:57;;;;;;;8.38;2.42;;;;;;;;;;5034756;28;20115;-72
2023/06/14 10:01:24;;;;;;;4.18;2.22;;;;;;;;;;5052514;28;20024;-72
2023/06/14 10:03:51;;;;;;;3.38;2.00;;;;;;;;;;5034264;28;20028;-72
2023/06/14 10:06:17;;;;;;;8.50;2.47;;;;;;;;;;5034525;28;20029;-72
2023/06/14 10:08:43;;;;;;;5.18;2.70;;;;;;;;;;5035040;28;20462;-72
2023/06/14 10:11:08;;;;;;;5.72;2.40;;;;;;;;;;5052058;28;20033;-72
2023/06/14 10:13:34;;;;;;;4.45;2.53;;;;;;;;;;5034053;28;20020;-72
2023/06/14 10:16:07;;;;;;;3.08;2.00;;;;;;;;;;5034196;28;20433;-72
2023/06/14 10:18:49;;;;;;;4.53;2.30;;;;;;;;;;5034387;28;20021;-72
2023/06/14 10:21:36;;;;;;;5.32;2.13;;;;;;;;;;5034386;28;20025;-72
2023/06/14 10:24:05;;;;;;;5.07;2.30;;;;;;;;;;5051492;28;20025;-72
2023/06/14 10:26:30;;;;;;;4.10;2.08;;;;;;;;;;5033658;28;20447;-72
2023/06/14 10:29:01;;;;;;;6.00;2.60;;;;;;;;;;5051952;28;20549;-72
2023/06/14 10:31:41;;;;;;;5.75;2.10;;;;;;;;;;5034046;28;20021;-72
2023/06/14 10:34:06;;;;;;;5.72;2.50;;;;;;;;;;5034085;28;20100;-72
2023/06/14 10:36:33;;;;;;;6.40;2.58;;;;;;;;;;5033564;28;20514;-72
2023/06/14 10:39:00;;;;;;;7.57;2.33;;;;;;;;;;5034159;28;20031;-72
2023/06/14 10:41:27;;;;;;;3.83;2.20;;;;;;;;;;5051605;28;20025;-72
2023/06/14 10:44:12;;;;;;;3.83;2.50;;;;;;;;;;5051552;28;20445;-72
2023/06/14 10:46:46;;;;;;;3.35;1.98;;;;;;;;;;5050306;28;20025;-72
2023/06/14 10:49:12;;;;;;;4.15;1.95;;;;;;;;;;5032694;28;20033;-72
2023/06/14 10:51:48;;;;;;;2.75;2.10;;;;;;;;;;5032684;28;20033;-72
2023/06/14 10:54:13;;;;;;;3.10;2.00;;;;;;;;;;5051280;28;20108;-72
2023/06/14 10:56:46;;;;;;;3.67;2.33;;;;;;;;;;5032444;28;20461;-72
2023/06/14 10:59:11;;;;;;;5.38;2.25;;;;;;;;;;5051355;28;20043;-72
2023/06/14 11:01:41;;;;;;;3.90;2.00;;;;;;;;;;5033899;28;20479;-72
2023/06/14 11:04:08;;;;;;;;;;;;;;;;;;5034745;28;20546;-72
2023/06/14 11:06:48;;;;;;;3.53;2.00;;;;;;;;;;5017536;28;19932;-72
2023/06/14 11:09:34;;;;;;;4.10;2.08;;;;;;;;;;5017529;28;20457;-72
2023/06/14 11:12:01;;;;;;;3.22;1.60;;;;;;;;;;5051917;28;20025;-72
2023/06/14 11:14:30;;;;;;;4.55;2.13;;;;;;;;;;5051758;28;20082;-72
2023/06/14 11:16:56;;;;;;;3.70;2.05;;;;;;;;;;5017318;28;20052;-72
2023/06/14 11:19:21;;;;;;;2.88;1.77;;;;;;;;;;5033702;28;20112;-72
2023/06/14 11:21:47;;;;;;;4.75;2.08;;;;;;;;;;5033054;28;20036;-73
2023/06/14 11:24:13;;;;;;;6.47;2.33;;;;;;;;;;5052139;28;20071;-73
2023/06/14 11:26:40;;;;;;;2.67;1.90;;;;;;;;;;5020077;28;20024;-72
2023/06/14 11:29:05;;;;;;;4.03;2.10;;;;;;;;;;5055479;28;20021;-72
2023/06/14 11:31:31;;;;;;;4.18;2.15;;;;;;;;;;5070100;28;20050;-73
2023/06/14 11:33:57;;;;;;;5.07;2.63;;;;;;;;;;5057012;28;20455;-73
2023/06/14 11:36:23;;;;;;;3.85;1.77;;;;;;;;;;5075597;28;20071;-73
2023/06/14 11:38:49;;;;;;;4.18;2.38;;;;;;;;;;5056668;28;20028;-73
2023/06/14 11:41:14;;;;;;;4.40;2.20;;;;;;;;;;5057434;28;20444;-72
2023/06/14 11:43:40;;;;;;;3.30;2.30;;;;;;;;;;5074695;28;20029;-73
2023/06/14 11:46:13;;;;;;;4.70;2.10;;;;;;;;;;5057017;28;20047;-72
2023/06/14 11:48:41;;;;;;;3.95;2.13;;;;;;;;;;5057260;28;20058;-73
2023/06/14 11:51:06;;;;;;;3.60;2.10;;;;;;;;;;5056722;28;20032;-72
2023/06/14 11:53:31;;;;;;;6.57;2.63;;;;;;;;;;5074745;28;20149;-72
2023/06/14 11:55:57;;;;;;;4.85;2.03;;;;;;;;;;5056864;28;20035;-72
2023/06/14 11:58:23;;;;;;;3.92;2.45;;;;;;;;;;5087394;28;20029;-72
2023/06/14 12:00:52;;;;;;;3.00;2.35;;;;;;;;;;5096427;28;20031;-72
2023/06/14 12:03:17;;;;;;;6.63;2.38;;;;;;;;;;5077719;28;20023;-72
2023/06/14 12:05:43;;;;;;;6.07;2.25;;;;;;;;;;5078226;28;20028;-72
2023/06/14 12:08:09;;;;;;;3.72;2.45;;;;;;;;;;5095917;28;20038;-73
2023/06/14 12:10:43;;;;;;;6.35;2.75;;;;;;;;;;5095920;28;20396;-72
2023/06/14 12:13:10;;;;;;;3.40;1.92;;;;;;;;;;5095732;28;20493;-72
2023/06/14 12:15:36;;;;;;;5.90;2.60;;;;;;;;;;5077767;28;20031;-72
2023/06/14 12:18:01;;;;;;;3.63;2.17;;;;;;;;;;5095811;28;20505;-72
2023/06/14 12:20:30;;;;;;;3.67;2.22;;;;;;;;;;5077647;28;20020;-72
2023/06/14 12:22:58;;;;;;;3.45;2.22;;;;;;;;;;5095640;28;20026;-72
2023/06/14 12:25:27;;;;;;;5.65;2.70;;;;;;;;;;5095515;28;20031;-73
2023/06/14 12:27:57;;;;;;;4.25;2.35;;;;;;;;;;5077761;28;20031;-72
2023/06/14 12:30:22;;;;;;;2.85;2.15;;;;;;;;;;5077238;28;20496;-72
2023/06/14 12:32:48;;;;;;;2.90;2.08;;;;;;;;;;5095372;28;20028;-72
2023/06/14 12:35:13;;;;;;;3.13;2.38;;;;;;;;;;5077413;28;20028;-72
2023/06/14 12:37:39;;;;;;;3.20;2.20;;;;;;;;;;5094750;28;20016;-72
2023/06/14 12:40:05;;;;;;;3.40;1.90;;;;;;;;;;5095065;28;20028;-73
2023/06/14 12:42:31;;;;;;;5.30;2.10;;;;;;;;;;5077035;28;20115;-73
2023/06/14 12:44:56;;;;;;;3.58;2.70;;;;;;;;;;5077112;28;20523;-72
2023/06/14 12:47:22;;;;;;;3.85;2.03;;;;;;;;;;5095603;28;20031;-73
2023/06/14 12:49:47;;;;;;;4.93;2.25;;;;;;;;;;5095111;28;20034;-72
2023/06/14 12:52:12;;;;;;;3.60;2.13;;;;;;;;;;5094904;28;20032;-73
2023/06/14 12:54:39;;;;;;;4.55;2.10;;;;;;;;;;5076955;28;20076;-72
2023/06/14 12:57:04;;;;;;;3.25;2.60;;;;;;;;;;5094961;28;20024;-74
2023/06/14 12:59:32;;;;;;;4.20;2.50;;;;;;;;;;5094356;28;20499;-72
2023/06/14 13:01:58;;;;;;;6.43;2.55;;;;;;;;;;5095043;28;20020;-73
2023/06/14 13:04:24;;;;;;;4.35;2.47;;;;;;;;;;5094932;28;20500;-74
2023/06/14 13:06:49;;;;;;;3.78;2.40;;;;;;;;;;5069384;28;20025;-72
2023/06/14 13:09:15;;;;;;;7.53;2.90;;;;;;;;;;5038038;28;20021;-73
2023/06/14 13:11:40;;;;;;;3.28;2.25;;;;;;;;;;5049582;28;20021;-72
2023/06/14 13:14:05;;;;;;;3.53;2.40;;;;;;;;;;5056272;28;20437;-72
2023/06/14 13:16:31;;;;;;;5.25;2.15;;;;;;;;;;5074264;28;20029;-72
2023/06/14 13:18:56;;;;;;;5.97;2.50;;;;;;;;;;5056964;28;20111;-72
2023/06/14 13:21:21;;;;;;;3.83;2.50;;;;;;;;;;5074737;28;20111;-72
2023/06/14 13:23:46;;;;;;;3.90;2.40;;;;;;;;;;5074460;28;20501;-72
2023/06/14 13:26:12;;;;;;;6.90;2.50;;;;;;;;;;5074390;28;20033;-72
2023/06/14 13:28:37;;;;;;;4.90;2.47;;;;;;;;;;5056908;28;20411;-73
2023/06/14 13:31:02;;;;;;;5.47;2.47;;;;;;;;;;5074255;28;20024;-72
2023/06/14 13:33:28;;;;;;;3.55;2.45;;;;;;;;;;5056270;28;20116;-72
2023/06/14 13:35:53;;;;;;;5.43;2.65;;;;;;;;;;5073975;28;20024;-72
2023/06/14 13:38:18;;;;;;;4.50;2.25;;;;;;;;;;5074118;28;20021;-72
2023/06/14 13:40:44;;;;;;;3.38;2.17;;;;;;;;;;5056354;28;20028;-72
2023/06/14 13:43:10;;;;;;;3.40;2.10;;;;;;;;;;5074107;28;20021;-73
2023/06/14 13:45:35;;;;;;;7.95;2.33;;;;;;;;;;5074611;28;20028;-73
2023/06/14 13:48:00;;;;;;;3.85;2.03;;;;;;;;;;5073901;28;20020;-73
2023/06/14 13:50:25;;;;;;;5.20;2.25;;;;;;;;;;5073051;28;20024;-73
2023/06/14 13:52:51;;;;;;;6.85;2.20;;;;;;;;;;5074055;28;20028;-73
2023/06/14 13:55:16;;;;;;;4.28;2.30;;;;;;;;;;5074529;28;20024;-73
2023/06/14 13:57:41;;;;;;;5.18;2.15;;;;;;;;;;5055958;28;20020;-72
2023/06/14 14:00:08;;;;;;;4.25;2.63;;;;;;;;;;5055863;28;20473;-72
2023/06/14 14:02:33;;;;;;;3.97;2.30;;;;;;;;;;5056101;28;20032;-73
2023/06/14 14:04:59;;;;;;;6.20;2.40;;;;;;;;;;5039208;28;20028;-72
2023/06/14 14:07:24;;;;;;;5.28;2.10;;;;;;;;;;5058200;28;20021;-72
2023/06/14 14:09:49;;;;;;;2.78;2.10;;;;;;;;;;5035843;28;20017;-72
2023/06/14 14:12:14;;;;;;;3.40;2.28;;;;;;;;;;5035647;28;20036;-72
2023/06/14 14:14:40;;;;;;;3.78;2.10;;;;;;;;;;5053840;28;20017;-73
2023/06/14 14:17:06;;;;;;;3.58;2.53;;;;;;;;;;5019058;28;20028;-73
2023/06/14 14:19:32;;;;;;;4.22;2.55;;;;;;;;;;5053405;28;20139;-74
2023/06/14 14:21:57;;;;;;;5.50;2.28;;;;;;;;;;5035548;28;20104;-74
2023/06/14 14:24:22;;;;;;;3.97;2.40;;;;;;;;;;5053368;28;20028;-73
2023/06/14 14:26:49;;;;;;;5.15;2.50;;;;;;;;;;5053337;28;20394;-74
2023/06/14 14:29:15;;;;;;;5.47;2.72;;;;;;;;;;5035627;28;20113;-73
2023/06/14 14:31:40;;;;;;;6.07;2.70;;;;;;;;;;5035445;28;20475;-73
2023/06/14 14:34:05;;;;;;;4.32;2.70;;;;;;;;;;5053335;28;20028;-74
2023/06/14 14:36:31;;;;;;;2.95;2.08;;;;;;;;;;5035714;28;20033;-74
2023/06/14 14:38:56;;;;;;;5.18;2.15;;;;;;;;;;5035294;28;20074;-73